TimePDT,TemperatureF,Dew PointF,Humidity,Sea Level PressureIn,VisibilityMPH,Wind Direction,Wind SpeedMPH,Gust SpeedMPH,PrecipitationIn,Events,Conditions,WindDirDegrees,DateUTC
12:56 AM,51.1,26.1,38,29.74,10.0,South,5.8,-,N/A,,Clear,170,2013-03-22 07:56:00
1:56 AM,50.0,25.0,38,29.76,10.0,Calm,Calm,-,N/A,,Clear,0,2013-03-22 08:56:00
2:56 AM,51.1,25.0,36,29.76,10.0,Calm,Calm,-,N/A,,Clear,0,2013-03-22 09:56:00
3:56 AM,48.0,23.0,37,29.77,10.0,Calm,Calm,-,N/A,,Clear,0,2013-03-22 10:56:00
4:56 AM,48.0,26.1,42,29.79,10.0,NW,8.1,-,N/A,,Clear,310,2013-03-22 11:56:00
5:56 AM,53.1,24.1,32,29.81,10.0,NNW,4.6,-,N/A,,Clear,330,2013-03-22 12:56:00
6:56 AM,46.9,21.9,37,29.84,10.0,WNW,8.1,-,N/A,,Clear,290,2013-03-22 13:56:00
7:56 AM,52.0,24.1,34,29.86,10.0,Calm,Calm,-,N/A,,Clear,0,2013-03-22 14:56:00
8:56 AM,62.1,19.0,19,29.87,10.0,North,5.8,-,N/A,,Clear,350,2013-03-22 15:56:00
9:56 AM,63.0,25.0,24,29.87,10.0,NNE,5.8,-,N/A,,Clear,20,2013-03-22 16:56:00
10:56 AM,66.9,17.1,15,29.87,10.0,WNW,3.5,-,N/A,,Clear,290,2013-03-22 17:56:00
11:56 AM,70.0,14.0,12,29.85,10.0,Calm,Calm,-,N/A,,Clear,0,2013-03-22 18:56:00
12:56 PM,71.1,7.0,8,29.82,10.0,Variable,3.5,-,N/A,,Clear,0,2013-03-22 19:56:00
1:56 PM,73.0,9.0,8,29.79,10.0,Variable,3.5,-,N/A,,Clear,0,2013-03-22 20:56:00
2:56 PM,75.9,23.0,14,29.75,10.0,SSE,11.5,17.3,N/A,,Clear,160,2013-03-22 21:56:00
3:56 PM,75.0,23.0,14,29.74,10.0,South,6.9,-,N/A,,Clear,170,2013-03-22 22:56:00
4:56 PM,75.0,23.0,14,29.73,10.0,SE,9.2,-,N/A,,Clear,130,2013-03-22 23:56:00
5:56 PM,73.0,24.1,16,29.71,10.0,WSW,13.8,-,N/A,,Clear,250,2013-03-23 00:56:00
6:56 PM,68.0,25.0,20,29.75,10.0,West,12.7,-,N/A,,Clear,270,2013-03-23 01:56:00
7:56 PM,64.9,23.0,20,29.78,10.0,SW,6.9,-,N/A,,Clear,220,2013-03-23 02:56:00
8:56 PM,57.0,23.0,27,29.81,10.0,SE,3.5,-,N/A,,Clear,140,2013-03-23 03:56:00
9:56 PM,57.0,25.0,29,29.83,10.0,South,6.9,-,N/A,,Clear,170,2013-03-23 04:56:00
10:56 PM,53.1,25.0,34,29.85,10.0,SW,4.6,-,N/A,,Clear,230,2013-03-23 05:56:00
11:56 PM,52.0,24.1,34,29.87,10.0,SW,4.6,-,N/A,,Clear,220,2013-03-23 06:56:00